EPKK/KRK METAR and TAF weather

Enter ICAO airport designator
Station Type Date Time Source
EPKK METAR 2019/08/21 23:00 UTC NOAA

EPKK 212300Z 07003KT CAVOK 15/14 Q1028


Station Type Date Time Source
EPKK Decoded METAR 2019/08/21 23:00 UTC NOAA

Station name not available
Aug 21, 2019 - 07:00 PM EDT / 2019.08.21 2300 UTC
Wind: from the ENE (070 degrees) at 3 MPH (3 KT):0
Visibility: greater than 7 mile(s):0
Temperature: 59 F (15 C)
Dew Point: 57 F (14 C)
Relative Humidity: 93%
Pressure (altimeter): 30.36 in. Hg (1028 hPa)
ob: EPKK 212300Z 07003KT CAVOK 15/14 Q1028
cycle: 23

Station Type Date Time Source
EPKK TAF 2019/08/21 21:36 UTC NOAA

TAF EPKK 212030Z 2121/2221 03005KT 9999 BKN033
TEMPO 2121/2206 2000 BR BKN006
BECMG 2205/2207 09012KT
TEMPO 2207/2213 09015G25KT
TEMPO 2214/2221 SHRA BKN030CB

Example: see airport list